Time;durP1;ratioP1;P1;durP2;ratioP2;P2;SDS_P1;SDS_P2;PMS_P1;PMS_P2;Temp;Humidity;BMP_temperature;BMP_pressure;BME280_temperature;BME280_humidity;BME280_pressure;Samples;Min_cycle;Max_cycle;Signal;HPM_P1;HPM_P2
2022/01/19 00:00:57;;;;;;;4.70;1.70;;;;;;;-6.02;62.09;99835.31;5073816;28;20338;-68
2022/01/19 00:03:23;;;;;;;3.35;1.75;;;;;;;-6.00;61.88;99828.31;5073652;28;20033;-67
2022/01/19 00:05:49;;;;;;;3.85;1.90;;;;;;;-5.92;61.91;99833.41;5074149;28;20041;-66
2022/01/19 00:08:19;;;;;;;2.90;1.67;;;;;;;-5.89;61.41;99835.13;5074284;28;20032;-67
2022/01/19 00:10:45;;;;;;;6.18;1.80;;;;;;;-5.87;61.90;99822.91;5073461;28;20024;-67
2022/01/19 00:13:12;;;;;;;5.85;2.45;;;;;;;-5.84;61.69;99812.44;5073792;28;20044;-67
2022/01/19 00:15:38;;;;;;;4.05;2.33;;;;;;;-5.79;61.80;99821.94;5074396;28;20040;-66
2022/01/19 00:18:03;;;;;;;4.65;2.40;;;;;;;-5.80;61.78;99820.22;5074132;28;20071;-67
2022/01/19 00:20:31;;;;;;;4.55;1.92;;;;;;;-5.76;61.82;99814.06;5073102;28;20064;-66
2022/01/19 00:22:58;;;;;;;4.80;1.40;;;;;;;-5.79;61.36;99813.22;5072129;28;20111;-66
2022/01/19 00:25:24;;;;;;;3.55;1.50;;;;;;;-5.85;61.25;99795.06;5072572;28;20036;-67
2022/01/19 00:27:50;;;;;;;3.28;1.38;;;;;;;-5.86;61.61;99799.44;5073878;28;20047;-68
2022/01/19 00:30:17;;;;;;;2.75;1.90;;;;;;;-5.91;61.94;99812.53;5072994;28;20384;-66
2022/01/19 00:32:43;;;;;;;4.18;1.85;;;;;;;-6.08;61.68;99780.63;5073354;28;20068;-71
2022/01/19 00:35:10;;;;;;;3.70;1.83;;;;;;;-5.84;61.94;99812.44;5055510;28;20166;-67
2022/01/19 00:37:36;;;;;;;3.47;1.85;;;;;;;-5.88;61.56;99802.94;5071962;28;20029;-67
2022/01/19 00:40:03;;;;;;;5.30;1.90;;;;;;;-5.87;61.61;99809.88;5072848;28;20055;-67
2022/01/19 00:42:29;;;;;;;6.90;1.98;;;;;;;-5.91;61.59;99807.31;5072728;28;20074;-66
2022/01/19 00:44:55;;;;;;;5.40;1.70;;;;;;;-5.94;61.82;99812.56;5073362;28;20056;-66
2022/01/19 00:47:20;;;;;;;5.68;1.83;;;;;;;-5.95;61.79;99805.63;5073270;28;20090;-67
2022/01/19 00:49:46;;;;;;;6.45;1.88;;;;;;;-5.97;61.97;99812.63;5072867;28;20043;-68
2022/01/19 00:52:12;;;;;;;3.20;1.75;;;;;;;-5.95;61.84;99810.84;5073075;28;20036;-68
2022/01/19 00:54:40;;;;;;;5.45;1.88;;;;;;;-5.92;61.82;99816.03;5072677;28;20548;-67
2022/01/19 00:57:06;;;;;;;3.78;1.83;;;;;;;-5.96;62.19;99803.91;5072691;28;20098;-68
2022/01/19 00:59:32;;;;;;;3.63;1.73;;;;;;;-6.02;61.79;99783.19;5071669;28;20028;-66
2022/01/19 01:01:58;;;;;;;3.30;1.80;;;;;;;-5.93;61.73;99806.47;5072653;28;20044;-66
2022/01/19 01:04:23;;;;;;;5.43;1.67;;;;;;;-5.96;61.60;99808.25;5072663;28;20024;-67
2022/01/19 01:06:49;;;;;;;2.30;1.40;;;;;;;-6.01;61.35;99797.94;5076534;28;20028;-68
2022/01/19 01:09:14;;;;;;;2.30;1.55;;;;;;;-6.06;61.35;99790.16;5091789;28;20035;-72
2022/01/19 01:11:48;;;;;;;4.45;1.55;;;;;;;-6.09;61.18;99795.44;5093187;28;20077;-69
2022/01/19 01:17:09;;;;;;;7.68;1.85;;;;;;;-6.33;62.05;99791.38;5092827;28;20082;-67
2022/01/19 01:19:27;;;;;;;3.20;1.63;;;;;;;-6.38;61.90;99791.44;5092671;28;20027;-69
2022/01/19 01:21:53;;;;;;;4.82;1.73;;;;;;;-6.47;61.95;99790.69;5092794;28;20422;-69
2022/01/19 01:24:18;;;;;;;5.07;1.75;;;;;;;-6.51;62.42;99798.53;5092260;28;20027;-69
2022/01/19 01:26:44;;;;;;;4.15;1.98;;;;;;;-6.49;62.31;99803.72;5093154;28;20035;-67
2022/01/19 01:29:10;;;;;;;5.93;1.73;;;;;;;-6.49;62.51;99806.31;5092113;28;20165;-67
2022/01/19 01:31:36;;;;;;;3.55;1.77;;;;;;;-6.68;62.51;99766.59;5091020;28;20177;-68
2022/01/19 01:34:01;;;;;;;3.83;2.05;;;;;;;-6.46;62.59;99795.84;5091591;28;20531;-68
2022/01/19 01:36:27;;;;;;;4.80;1.95;;;;;;;-6.36;62.78;99800.09;5092739;28;20539;-69
2022/01/19 01:38:52;;;;;;;3.72;1.77;;;;;;;-6.36;62.20;99794.00;5090962;28;20055;-69
2022/01/19 01:41:18;;;;;;;5.25;1.75;;;;;;;-6.58;62.44;99757.78;5107439;28;20031;-70
2022/01/19 01:43:45;;;;;;;3.60;1.92;;;;;;;-6.33;62.52;99808.75;5106372;28;20472;-67
2022/01/19 01:46:22;;;;;;;4.78;1.70;;;;;;;-6.37;62.54;99792.28;5091780;28;20514;-70
2022/01/19 01:48:48;;;;;;;4.40;1.85;;;;;;;-6.53;62.01;99769.00;5091471;28;20117;-68
2022/01/19 01:53:59;;;;;;;4.45;2.03;;;;;;;-6.36;62.25;99809.66;5092115;28;20032;-67
2022/01/19 01:56:24;;;;;;;4.28;1.85;;;;;;;-6.36;62.76;99810.53;5091700;28;20113;-70
2022/01/19 01:58:50;;;;;;;4.05;1.98;;;;;;;-6.30;62.88;99803.50;5091997;28;20432;-69
2022/01/19 02:01:17;;;;;;;3.30;1.77;;;;;;;-6.27;62.88;99795.66;5092581;28;20024;-67
2022/01/19 02:03:44;;;;;;;3.45;1.80;;;;;;;-6.18;62.69;99803.34;5092523;28;20039;-67
2022/01/19 02:06:48;;;;;;;3.90;2.13;;;;;;;-6.15;62.86;99807.66;5090379;28;20036;-68
2022/01/19 02:21:38;;;;;;;3.83;1.75;;;;;;;-5.99;62.26;99824.81;5091428;28;20031;-68
2022/01/19 02:22:41;;;;;;;6.20;1.98;;;;;;;-6.06;62.26;99816.25;5049447;28;20106;-67
2022/01/19 02:25:06;;;;;;;5.22;1.77;;;;;;;-6.09;62.22;99812.78;5082948;28;20523;-70
2022/01/19 02:30:48;;;;;;;5.57;1.77;;;;;;;-6.07;61.80;99829.28;5092485;28;20028;-68
2022/01/19 02:41:31;;;;;;;3.45;1.65;;;;;;;-5.92;61.60;99836.00;5087996;28;20036;-69
2022/01/19 02:43:57;;;;;;;5.07;1.98;;;;;;;-6.08;61.98;99810.19;5090980;28;20059;-67
2022/01/19 02:46:54;;;;;;;5.10;2.10;;;;;;;-5.98;61.56;99834.38;5091075;28;20430;-69
2022/01/19 02:49:21;;;;;;;4.80;2.08;;;;;;;-5.95;61.89;99836.03;5091114;28;20040;-68
2022/01/19 02:51:50;;;;;;;4.00;2.08;;;;;;;-5.95;62.05;99841.25;5091282;28;20024;-69
2022/01/19 02:54:17;;;;;;;4.88;2.22;;;;;;;-5.90;62.06;99852.53;5089787;28;20605;-68
2022/01/19 02:56:47;;;;;;;2.72;1.92;;;;;;;-5.96;61.86;99842.16;5090893;28;20148;-70
2022/01/19 02:59:22;;;;;;;4.57;2.08;;;;;;;-5.93;61.64;99855.13;5091244;28;20035;-67
2022/01/19 03:09:43;;;;;;;2.85;2.08;;;;;;;-5.96;62.04;99830.00;5074631;28;20037;-67
2022/01/19 03:12:09;;;;;;;4.60;1.88;;;;;;;-5.89;61.69;99846.41;5074798;28;20132;-68
2022/01/19 03:14:35;;;;;;;7.28;1.80;;;;;;;-5.87;61.65;99838.56;5074987;28;20067;-69
2022/01/19 03:17:01;;;;;;;2.80;1.80;;;;;;;-5.85;61.48;99842.00;5074717;28;20033;-67
2022/01/19 03:19:29;;;;;;;6.20;2.10;;;;;;;-5.91;61.53;99832.50;5074523;28;20167;-68
2022/01/19 03:21:55;;;;;;;5.10;1.95;;;;;;;-6.14;61.16;99810.28;5075288;28;20426;-67
2022/01/19 03:24:20;;;;;;;2.92;1.80;;;;;;;-5.97;61.26;99833.47;5074636;28;20028;-68
2022/01/19 03:26:46;;;;;;;4.28;1.88;;;;;;;-6.07;61.58;99830.16;5073270;28;20043;-68
2022/01/19 03:29:12;;;;;;;4.30;2.25;;;;;;;-6.12;61.58;99829.34;5074844;28;20103;-68
2022/01/19 03:31:37;;;;;;;3.85;2.25;;;;;;;-6.14;61.35;99825.03;5073208;28;20028;-68
2022/01/19 03:34:03;;;;;;;4.88;2.17;;;;;;;-6.11;61.50;99832.81;5072935;28;20039;-67
2022/01/19 03:36:28;;;;;;;4.60;2.22;;;;;;;-6.17;61.50;99823.31;5074312;28;20425;-68
2022/01/19 03:38:54;;;;;;;3.72;2.08;;;;;;;-6.20;61.75;99823.34;5074811;28;20451;-71
2022/01/19 03:41:20;;;;;;;3.70;2.47;;;;;;;-6.24;61.79;99825.16;5074522;28;20538;-70
2022/01/19 03:43:46;;;;;;;4.05;2.33;;;;;;;-6.36;61.91;99804.44;5072639;28;20435;-70
2022/01/19 03:46:15;;;;;;;5.72;2.63;;;;;;;-6.30;61.76;99813.94;5073471;28;20127;-67
2022/01/19 03:49:29;;;;;;;6.07;2.15;;;;;;;-6.27;62.00;99822.59;5084230;28;20043;-70
2022/01/19 03:51:29;;;;;;;4.00;2.08;;;;;;;-6.30;61.75;99819.13;5084669;28;20045;-68
2022/01/19 03:53:55;;;;;;;6.93;2.20;;;;;;;-6.37;62.00;99819.22;5074145;28;20035;-68
2022/01/19 03:56:21;;;;;;;7.50;2.85;;;;;;;-6.47;62.63;99824.53;5074608;28;20115;-68
2022/01/19 03:58:46;;;;;;;6.18;2.22;;;;;;;-6.58;62.80;99822.91;5074401;28;20107;-67
2022/01/19 04:01:12;;;;;;;4.53;1.98;;;;;;;-6.65;62.80;99829.06;5073497;28;20084;-68
2022/01/19 04:06:40;;;;;;;5.05;2.08;;;;;;;-6.87;63.22;99815.38;5061639;28;20514;-69
2022/01/19 04:09:05;;;;;;;4.68;2.08;;;;;;;-6.80;63.45;99837.88;5073296;28;20561;-70
2022/01/19 04:11:31;;;;;;;3.92;1.73;;;;;;;-6.83;63.42;99845.72;5073039;28;20025;-68
2022/01/19 04:16:22;;;;;;;3.88;2.60;;;;;;;-6.99;63.14;99840.66;5074173;28;20153;-68
2022/01/19 04:18:48;;;;;;;6.25;1.92;;;;;;;-7.04;63.83;99842.44;5072859;28;20024;-67
2022/01/19 04:21:14;;;;;;;2.92;1.60;;;;;;;-7.14;63.97;99838.16;5073323;28;20086;-67
2022/01/19 04:23:39;;;;;;;5.55;1.80;;;;;;;-7.17;63.97;99849.47;5073648;28;20040;-67
2022/01/19 04:26:06;;;;;;;2.50;1.50;;;;;;;-7.17;63.85;99844.28;5073665;28;20379;-67
2022/01/19 04:28:32;;;;;;;5.03;2.10;;;;;;;-7.23;64.27;99831.31;5073798;28;20040;-68
2022/01/19 04:30:58;;;;;;;7.28;1.98;;;;;;;-7.22;64.27;99844.28;5073088;28;20028;-67
2022/01/19 04:33:26;;;;;;;4.75;1.90;;;;;;;-7.28;64.32;99846.94;5073285;28;20024;-67
2022/01/19 04:35:54;;;;;;;4.00;2.13;;;;;;;-7.28;64.38;99856.47;5073922;28;20025;-67
2022/01/19 04:39:05;;;;;;;3.63;1.63;;;;;;;-7.24;64.42;99865.97;5073283;28;20033;-68
2022/01/19 04:44:22;;;;;;;5.68;1.63;;;;;;;-7.28;64.47;99859.97;5071806;28;20044;-67
2022/01/19 04:47:48;;;;;;;4.38;1.63;;;;;;;-7.17;64.69;99872.88;5072921;28;20071;-69
2022/01/19 05:03:10;;;;;;;4.67;2.20;;;;;;;-6.83;64.12;99843.13;5073056;28;20257;-66
2022/01/19 05:05:47;;;;;;;6.78;2.30;;;;;;;-7.01;63.95;99807.69;5072357;28;20032;-65
2022/01/19 05:13:38;;;;;;;6.82;2.10;;;;;;;-6.75;63.66;99837.81;5070714;28;20028;-68
2022/01/19 05:16:04;;;;;;;4.43;2.25;;;;;;;-6.85;64.38;99829.25;5072788;28;20097;-66
2022/01/19 05:18:30;;;;;;;7.57;2.45;;;;;;;-6.98;64.67;99824.16;5072208;28;20033;-67
2022/01/19 05:20:56;;;;;;;4.82;1.98;;;;;;;-6.96;64.47;99830.19;5054526;28;20051;-69
2022/01/19 05:23:22;;;;;;;12.48;2.55;;;;;;;-7.01;64.51;99836.31;5071789;28;20036;-68
2022/01/19 05:25:47;;;;;;;4.40;2.33;;;;;;;-7.07;64.47;99832.06;5072272;28;20036;-67
2022/01/19 05:28:14;;;;;;;7.05;2.38;;;;;;;-7.09;64.85;99826.00;5071831;28;20468;-68
2022/01/19 05:30:41;;;;;;;7.28;2.60;;;;;;;-7.14;65.21;99820.81;5072060;28;20036;-68
2022/01/19 05:33:07;;;;;;;4.60;2.50;;;;;;;-7.21;64.79;99829.56;5054519;28;20025;-69
2022/01/19 05:35:32;;;;;;;5.60;2.40;;;;;;;-7.27;65.40;99821.78;5072308;28;20480;-70
2022/01/19 05:37:58;;;;;;;8.38;2.28;;;;;;;-7.32;65.18;99816.63;5072263;28;20094;-69
2022/01/19 05:40:23;;;;;;;4.43;2.22;;;;;;;-7.52;64.70;99778.63;5071923;28;20064;-68
2022/01/19 05:42:50;;;;;;;6.30;2.28;;;;;;;-7.35;65.05;99812.31;5072420;28;20457;-67
2022/01/19 05:45:17;;;;;;;4.68;1.95;;;;;;;-7.38;65.32;99811.44;5071770;28;20059;-69
2022/01/19 05:47:43;;;;;;;7.00;2.40;;;;;;;-7.44;65.36;99807.19;5070327;28;20032;-70
2022/01/19 05:50:09;;;;;;;6.78;2.50;;;;;;;-7.46;65.94;99819.34;5072756;28;20469;-68
2022/01/19 05:52:34;;;;;;;6.38;2.40;;;;;;;-7.46;65.77;99819.34;5070804;28;20043;-69
2022/01/19 05:55:00;;;;;;;5.25;2.28;;;;;;;-7.46;65.69;99803.72;5071601;28;20025;-68
2022/01/19 05:57:25;;;;;;;5.72;2.47;;;;;;;-7.36;65.94;99807.09;5069714;28;20439;-70
2022/01/19 05:59:51;;;;;;;4.05;2.35;;;;;;;-7.14;65.72;99820.81;5071360;28;20539;-69
2022/01/19 06:02:17;;;;;;;6.88;3.03;;;;;;;-7.04;65.53;99818.13;5071897;28;20028;-69
2022/01/19 06:04:42;;;;;;;6.00;2.53;;;;;;;-6.87;65.21;99824.06;5070585;28;20028;-68
2022/01/19 06:07:09;;;;;;;9.13;2.63;;;;;;;-6.78;64.31;99823.09;5070084;28;20035;-68
2022/01/19 06:09:37;;;;;;;6.82;3.05;;;;;;;-6.65;64.56;99795.19;5071531;28;20024;-69
2022/01/19 06:12:07;;;;;;;5.07;2.65;;;;;;;-6.07;63.35;99822.34;5071753;28;20051;-69
2022/01/19 06:14:35;;;;;;;5.97;2.25;;;;;;;-6.02;62.02;99764.94;5070293;28;20074;-69
2022/01/19 06:17:01;;;;;;;7.45;3.10;;;;;;;-5.66;60.97;99814.81;5071572;28;20063;-68
2022/01/19 06:19:27;;;;;;;5.63;2.90;;;;;;;-5.52;61.90;99803.31;5070995;28;20059;-68
2022/01/19 06:21:53;;;;;;;6.43;2.60;;;;;;;-4.91;61.02;99819.75;5071781;28;20028;-68
2022/01/19 06:24:18;;;;;;;4.03;2.53;;;;;;;-4.71;59.08;99783.69;5071671;28;20043;-70
2022/01/19 06:26:44;;;;;;;6.82;2.55;;;;;;;-4.22;58.41;99815.84;5070605;28;20515;-69
2022/01/19 06:29:10;;;;;;;7.18;3.22;;;;;;;-4.27;58.45;99802.88;5070989;28;20028;-68
2022/01/19 06:31:35;;;;;;;8.10;3.10;;;;;;;-4.14;57.84;99810.47;5071245;28;20474;-68
2022/01/19 06:34:01;;;;;;;7.53;2.75;;;;;;;-4.32;58.13;99816.03;5071394;28;20033;-70
2022/01/19 06:36:26;;;;;;;4.50;2.25;;;;;;;-4.60;58.33;99823.53;5070412;28;20484;-69
2022/01/19 06:38:52;;;;;;;6.03;2.75;;;;;;;-4.91;59.56;99818.88;5070885;28;20498;-69
2022/01/19 06:41:18;;;;;;;5.85;2.58;;;;;;;-4.72;60.30;99813.31;5069531;28;20121;-68
2022/01/19 06:43:43;;;;;;;6.32;2.55;;;;;;;-4.00;57.96;99810.19;5069574;28;20070;-68
2022/01/19 06:46:10;;;;;;;5.82;2.33;;;;;;;-3.44;56.94;99822.91;5069625;28;20045;-68
2022/01/19 06:48:36;;;;;;;5.57;2.17;;;;;;;-3.14;55.41;99817.84;5070607;28;20040;-69
2022/01/19 06:51:02;;;;;;;3.65;2.20;;;;;;;-3.22;55.02;99817.19;5070742;28;20059;-68
2022/01/19 06:53:27;;;;;;;4.82;2.33;;;;;;;-3.64;56.01;99815.53;5071053;28;20025;-68
2022/01/19 06:55:57;;;;;;;4.28;2.13;;;;;;;-4.18;57.50;99818.38;5070741;28;20028;-68
2022/01/19 06:58:27;;;;;;;6.07;2.20;;;;;;;-4.50;58.31;99809.44;5071023;28;20365;-70
2022/01/19 07:00:53;;;;;;;5.40;2.47;;;;;;;-4.91;59.61;99814.53;5070785;28;20134;-70
2022/01/19 07:03:18;;;;;;;6.22;2.80;;;;;;;-4.73;59.58;99815.06;5070686;28;20033;-69
2022/01/19 07:05:44;;;;;;;7.85;2.55;;;;;;;-4.76;59.42;99815.13;5070755;28;20168;-69
2022/01/19 07:08:09;;;;;;;5.22;2.20;;;;;;;-4.78;59.61;99819.50;5070603;28;20029;-68
2022/01/19 07:10:35;;;;;;;4.93;2.17;;;;;;;-4.92;59.57;99814.53;5070742;28;20040;-74
2022/01/19 07:13:02;;;;;;;5.72;2.20;;;;;;;-5.00;59.28;99803.38;5071454;28;20499;-69
2022/01/19 07:15:28;;;;;;;6.47;2.42;;;;;;;-5.26;59.89;99809.88;5070679;28;20040;-69
2022/01/19 07:17:53;;;;;;;6.50;2.28;;;;;;;-5.32;61.34;99805.59;5070334;28;20392;-69
2022/01/19 07:20:19;;;;;;;4.95;1.80;;;;;;;-4.19;59.42;99761.75;5070071;28;20129;-69
2022/01/19 07:22:45;;;;;;;6.50;2.03;;;;;;;-3.17;56.17;99762.94;5070734;28;20032;-70
2022/01/19 07:25:10;;;;;;;8.18;2.22;;;;;;;-2.78;54.24;99793.38;5070218;28;20028;-68
2022/01/19 07:27:36;;;;;;;8.00;2.50;;;;;;;-2.48;55.44;99786.47;5070723;28;20036;-72
2022/01/19 07:30:03;;;;;;;5.57;2.28;;;;;;;-0.85;51.71;99778.00;5069825;28;20032;-67
2022/01/19 07:32:33;;;;;;;7.82;2.75;;;;;;;0.38;48.95;99758.59;5070357;28;20031;-69
2022/01/19 07:35:00;;;;;;;4.22;2.33;;;;;;;2.64;43.68;99767.28;5070587;28;20029;-68
2022/01/19 07:37:26;;;;;;;5.00;2.30;;;;;;;3.11;41.12;99768.47;5070753;28;20448;-71
2022/01/19 07:39:51;;;;;;;4.20;2.13;;;;;;;2.23;42.64;99760.41;5070717;28;20029;-70
2022/01/19 07:42:17;;;;;;;5.05;2.30;;;;;;;1.98;43.77;99756.28;5069894;28;20025;-70
2022/01/19 07:44:42;;;;;;;8.65;2.70;;;;;;;1.84;43.06;99749.81;5070100;28;20575;-69
2022/01/19 07:47:08;;;;;;;3.78;2.63;;;;;;;1.20;44.49;99725.38;5071385;28;20037;-72
2022/01/19 07:49:33;;;;;;;8.48;3.20;;;;;;;1.04;44.75;99750.72;5075008;28;20037;-69
2022/01/19 07:51:59;;;;;;;5.40;2.95;;;;;;;0.66;45.10;99746.94;5073809;28;20234;-70
2022/01/19 07:54:24;;;;;;;5.22;2.88;;;;;;;0.34;46.15;99735.06;5074163;28;20039;-70
2022/01/19 07:56:50;;;;;;;6.60;3.00;;;;;;;-0.39;46.79;99659.78;5074481;28;20446;-70
2022/01/19 07:59:17;;;;;;;7.30;2.70;;;;;;;-0.13;46.80;99736.88;5074180;28;20103;-70
2022/01/19 08:01:43;;;;;;;8.13;3.20;;;;;;;-0.44;47.93;99748.53;5072148;28;20527;-72
2022/01/19 08:04:09;;;;;;;5.43;2.70;;;;;;;-0.88;48.69;99742.16;5073531;28;20029;-71
2022/01/19 08:06:34;;;;;;;5.30;3.10;;;;;;;-1.30;48.85;99729.59;5094582;28;20039;-72
2022/01/19 08:09:00;;;;;;;10.45;5.35;;;;;;;-1.56;50.84;99736.56;5094713;28;20089;-71
2022/01/19 08:11:25;;;;;;;7.70;3.28;;;;;;;-1.70;51.80;99726.47;5094091;28;20032;-68
2022/01/19 08:13:51;;;;;;;8.10;2.90;;;;;;;-1.85;51.83;99732.22;5092479;28;20028;-73
2022/01/19 08:16:17;;;;;;;10.75;3.63;;;;;;;-2.18;52.57;99723.53;5094571;28;20028;-70
2022/01/19 08:18:43;;;;;;;7.95;2.90;;;;;;;-2.66;53.10;99672.50;5094014;28;20482;-70
2022/01/19 08:21:08;;;;;;;7.28;3.03;;;;;;;-2.68;53.36;99713.63;5075749;28;20024;-69
2022/01/19 08:23:34;;;;;;;7.30;2.88;;;;;;;-2.77;54.07;99721.75;5093430;28;20388;-71
2022/01/19 08:25:59;;;;;;;8.23;3.30;;;;;;;-2.85;54.34;99728.94;5092799;28;20044;-71
2022/01/19 08:28:25;;;;;;;7.57;2.60;;;;;;;-2.89;54.40;99730.81;5088165;28;20024;-65
2022/01/19 08:30:51;;;;;;;8.40;3.35;;;;;;;-2.95;54.22;99720.47;5073163;28;20029;-68
2022/01/19 08:33:16;;;;;;;8.20;3.15;;;;;;;-2.95;54.48;99723.97;5079369;28;20032;-69
2022/01/19 08:35:42;;;;;;;7.40;3.10;;;;;;;-2.94;54.29;99717.81;5091463;28;20352;-66
2022/01/19 08:38:08;;;;;;;7.05;2.97;;;;;;;-2.84;54.44;99730.66;5093339;28;20047;-68
2022/01/19 08:40:36;;;;;;;12.35;3.20;;;;;;;-2.89;54.29;99710.69;5092939;28;20495;-65
2022/01/19 08:43:01;;;;;;;9.55;3.13;;;;;;;-2.86;54.44;99719.38;5091276;28;20098;-65
2022/01/19 08:45:27;;;;;;;6.50;3.42;;;;;;;-2.93;53.56;99713.44;5091105;28;20094;-66
2022/01/19 08:47:53;;;;;;;8.93;2.92;;;;;;;-3.03;54.74;99713.69;5092854;28;20040;-64
2022/01/19 08:50:19;;;;;;;7.63;3.17;;;;;;;-3.11;54.88;99692.09;5092969;28;20039;-66
2022/01/19 08:52:45;;;;;;;8.15;3.33;;;;;;;-3.12;54.51;99668.53;5093347;28;20046;-66
2022/01/19 08:55:12;;;;;;;16.92;7.93;;;;;;;-2.94;54.37;99693.38;5092061;28;20031;-64
2022/01/19 08:57:38;;;;;;;7.15;3.40;;;;;;;-2.96;54.42;99700.41;5093077;28;20452;-64
2022/01/19 09:00:09;;;;;;;8.48;3.30;;;;;;;-2.98;55.16;99687.38;5093276;28;20115;-66
2022/01/19 09:02:35;;;;;;;8.18;3.22;;;;;;;-3.00;54.36;99685.69;5094469;28;20352;-69
2022/01/19 09:05:02;;;;;;;9.07;4.03;;;;;;;-2.99;54.92;99690.91;5092800;28;20051;-65
2022/01/19 09:07:28;;;;;;;10.77;3.70;;;;;;;-3.09;54.46;99669.31;5087822;28;20081;-67
2022/01/19 09:09:53;;;;;;;8.85;3.80;;;;;;;-3.04;54.64;99671.78;5073418;28;20029;-66
2022/01/19 09:12:19;;;;;;;9.50;4.20;;;;;;;-3.04;54.61;99670.06;5078759;28;20473;-67
2022/01/19 09:14:44;;;;;;;10.50;3.80;;;;;;;-3.12;54.61;99664.19;5093010;28;20028;-66
2022/01/19 09:17:10;;;;;;;12.25;4.00;;;;;;;-3.10;55.30;99672.84;5093190;28;20031;-65
2022/01/19 09:19:39;;;;;;;7.43;4.38;;;;;;;-3.11;55.40;99675.50;5092594;28;20115;-67
2022/01/19 09:22:06;;;;;;;14.07;3.97;;;;;;;-3.08;55.71;99681.53;5092591;28;20081;-66
2022/01/19 09:24:34;;;;;;;9.75;5.07;;;;;;;-2.91;55.10;99672.31;5085849;28;20039;-67
2022/01/19 09:26:59;;;;;;;9.38;4.78;;;;;;;-2.62;54.33;99673.28;5072396;28;20094;-65
2022/01/19 09:29:25;;;;;;;8.82;4.18;;;;;;;-2.34;54.08;99667.22;5071627;28;20033;-66
2022/01/19 09:31:51;;;;;;;11.35;4.90;;;;;;;-2.07;53.20;99669.91;5072293;28;20024;-65
2022/01/19 09:34:20;;;;;;;8.93;4.60;;;;;;;-1.85;52.27;99664.00;5072357;28;20035;-66
2022/01/19 09:36:46;;;;;;;15.68;5.28;;;;;;;-1.83;52.18;99668.25;5075948;28;20440;-66
2022/01/19 09:39:18;;;;;;;11.30;5.85;;;;;;;-1.74;51.93;99667.09;5092494;28;20027;-67
2022/01/19 09:41:45;;;;;;;12.38;5.93;;;;;;;-1.76;51.94;99664.56;5092667;28;20060;-64
2022/01/19 09:44:11;;;;;;;10.75;5.07;;;;;;;-1.82;52.00;99651.59;5092726;28;20052;-66
2022/01/19 09:46:37;;;;;;;16.95;6.53;;;;;;;-1.93;52.01;99651.09;5092154;28;20036;-66
2022/01/19 09:49:05;;;;;;;13.52;6.05;;;;;;;-2.01;52.24;99651.34;5091918;28;20403;-66
2022/01/19 09:51:31;;;;;;;10.95;6.10;;;;;;;-2.04;52.37;99654.94;5092256;28;20567;-65
2022/01/19 09:53:57;;;;;;;16.70;6.60;;;;;;;-2.02;52.13;99652.25;5092344;28;20080;-67
2022/01/19 09:56:23;;;;;;;13.98;6.90;;;;;;;-1.76;52.02;99669.81;5092145;28;20054;-66
2022/01/19 09:58:48;;;;;;;12.57;6.10;;;;;;;-1.51;51.96;99666.38;5091435;28;20032;-66
2022/01/19 10:01:22;;;;;;;16.80;6.00;;;;;;;-1.24;50.89;99665.47;5083527;28;20492;-64
2022/01/19 10:03:48;;;;;;;13.18;6.57;;;;;;;-1.38;50.26;99664.19;5071538;28;20413;-65
2022/01/19 10:06:16;;;;;;;15.48;6.35;;;;;;;-1.69;50.78;99644.19;5069526;28;20189;-64
2022/01/19 10:08:44;;;;;;;12.07;6.70;;;;;;;-1.64;52.08;99655.41;5074279;28;20434;-64
2022/01/19 10:11:13;;;;;;;14.55;6.70;;;;;;;-1.65;51.74;99660.69;5091135;28;20487;-63
2022/01/19 10:19:25;;;;;;;13.50;5.65;;;;;;;-1.35;51.46;99647.44;5091388;28;20085;-65
2022/01/19 10:22:24;;;;;;;11.40;6.03;;;;;;;-1.05;51.97;99658.66;5091777;28;20073;-65
2022/01/19 10:25:02;;;;;;;13.88;5.63;;;;;;;-0.93;51.33;99648.63;5089890;28;20055;-65
2022/01/19 10:27:38;;;;;;;13.60;6.05;;;;;;;-0.82;50.50;99646.47;5088085;28;20442;-68
2022/01/19 10:30:04;;;;;;;;;;;;;;;-0.45;51.60;99644.25;5090439;28;20031;-64
2022/01/19 10:32:33;;;;;;;9.18;5.13;;;;;;;-0.53;49.73;99644.53;5089441;28;20311;-64
2022/01/19 10:35:24;;;;;;;10.75;5.07;;;;;;;-0.60;50.23;99627.28;5089800;28;20464;-66
2022/01/19 10:38:18;;;;;;;12.45;4.82;;;;;;;-0.58;50.54;99625.44;5089983;28;20063;-66
2022/01/19 10:41:04;;;;;;;10.40;4.43;;;;;;;-0.87;49.29;99611.63;5091549;28;20356;-66
2022/01/19 10:43:42;;;;;;;10.07;4.85;;;;;;;-0.93;50.02;99617.09;5089546;28;20032;-63
2022/01/19 10:46:29;;;;;;;9.25;4.60;;;;;;;-1.04;50.89;99622.75;5090726;28;20044;-65
2022/01/19 10:48:59;;;;;;;10.60;5.07;;;;;;;-1.18;50.68;99618.81;5089823;28;20100;-67
2022/01/19 10:51:30;;;;;;;13.60;5.88;;;;;;;-1.20;51.16;99617.19;5090680;28;20084;-66
2022/01/19 10:54:17;;;;;;;9.52;5.35;;;;;;;-1.12;51.85;99622.16;5091095;28;20040;-64
2022/01/19 10:56:48;;;;;;;9.55;4.95;;;;;;;-1.19;51.15;99611.03;5091600;28;20040;-65
2022/01/19 10:59:17;;;;;;;10.27;5.03;;;;;;;-1.18;50.73;99615.34;5091222;28;20059;-66
2022/01/19 11:01:55;;;;;;;11.13;5.43;;;;;;;-1.16;51.38;99605.66;5091388;28;20039;-66
2022/01/19 11:04:27;;;;;;;15.80;7.40;;;;;;;-1.17;50.72;99614.44;5091139;28;20024;-66
2022/01/19 11:07:13;;;;;;;14.07;5.32;;;;;;;-1.21;51.43;99604.94;5089753;28;20024;-66
2022/01/19 11:09:57;;;;;;;12.65;5.97;;;;;;;-1.47;50.75;99581.31;5090990;28;20451;-66
2022/01/19 11:12:27;;;;;;;11.77;5.93;;;;;;;-1.49;50.51;99588.41;5091325;28;20028;-65
2022/01/19 11:14:53;;;;;;;11.93;5.05;;;;;;;-1.42;51.10;99610.06;5089830;28;20494;-66
2022/01/19 11:17:18;;;;;;;15.05;5.30;;;;;;;-1.45;51.12;99615.38;5090954;28;20107;-65
2022/01/19 11:19:44;;;;;;;12.40;4.30;;;;;;;-1.55;51.49;99604.38;5091595;28;20036;-66
2022/01/19 11:22:14;;;;;;;9.95;4.85;;;;;;;-1.64;51.99;99605.53;5093656;28;20444;-66
2022/01/19 11:24:45;;;;;;;10.35;4.28;;;;;;;-1.67;51.75;99608.28;5094728;28;20268;-65
2022/01/19 11:27:12;;;;;;;11.00;4.93;;;;;;;-1.73;52.16;99608.44;5095034;28;20391;-64
2022/01/19 11:29:39;;;;;;;11.32;4.35;;;;;;;-1.75;51.96;99597.16;5095496;28;20117;-64
2022/01/19 11:32:19;;;;;;;7.60;4.30;;;;;;;-1.71;52.39;99603.16;5094927;28;20035;-66
2022/01/19 11:34:52;;;;;;;12.05;4.97;;;;;;;-1.85;52.31;99586.09;5093934;28;20039;-67
2022/01/19 11:37:42;;;;;;;9.63;4.63;;;;;;;-1.77;52.86;99593.72;5095445;28;20028;-66
2022/01/19 11:40:18;;;;;;;12.98;4.30;;;;;;;-1.78;52.39;99592.00;5095222;28;20036;-66
2022/01/19 11:42:45;;;;;;;12.38;4.78;;;;;;;-1.85;52.64;99585.25;5094518;28;20032;-66
2022/01/19 11:45:40;;;;;;;13.90;4.63;;;;;;;-1.80;52.90;99580.72;5094385;28;20060;-65
2022/01/19 11:48:18;;;;;;;10.45;4.40;;;;;;;-2.00;52.99;99552.53;5095230;28;20036;-65
2022/01/19 11:50:45;;;;;;;11.88;4.72;;;;;;;-1.93;52.41;99573.25;5094734;28;20039;-66
2022/01/19 11:53:12;;;;;;;12.55;4.65;;;;;;;-1.93;53.52;99586.38;5094737;28;20066;-64
2022/01/19 11:56:01;;;;;;;8.65;4.40;;;;;;;-1.89;53.32;99585.38;5094440;28;20387;-65
2022/01/19 11:58:26;;;;;;;12.50;4.68;;;;;;;-2.17;53.21;99539.06;5094819;28;20483;-65
2022/01/19 12:00:55;;;;;;;12.00;5.03;;;;;;;-1.98;53.39;99559.41;5094545;28;20052;-65
2022/01/19 12:03:30;;;;;;;10.95;4.45;;;;;;;-1.99;52.41;99570.81;5094611;28;20032;-64
2022/01/19 12:05:56;;;;;;;10.20;4.47;;;;;;;-2.00;52.40;99570.88;5094317;28;20036;-64
2022/01/19 12:08:32;;;;;;;10.50;4.15;;;;;;;-1.99;52.67;99569.97;5094842;28;20039;-65
2022/01/19 12:11:03;;;;;;;11.60;4.38;;;;;;;-2.01;53.26;99564.75;5094531;28;20028;-65
2022/01/19 12:19:13;;;;;;;12.98;5.05;;;;;;;-1.99;53.05;99546.34;5093458;28;20441;-65
2022/01/19 12:22:13;;;;;;;15.73;6.60;;;;;;;-2.02;52.63;99545.56;5093883;28;20028;-65
2022/01/19 12:24:53;;;;;;;10.65;4.35;;;;;;;-1.99;52.48;99536.72;5060079;28;20040;-65
2022/01/19 12:27:19;;;;;;;10.10;3.80;;;;;;;-2.06;52.18;99537.81;5093990;28;20054;-64
2022/01/19 12:30:19;;;;;;;8.13;3.67;;;;;;;-2.15;53.10;99544.22;5093772;28;20024;-65
2022/01/19 12:32:48;;;;;;;7.45;3.60;;;;;;;-2.25;53.00;99535.81;5047812;28;20372;-66
2022/01/19 12:35:17;;;;;;;6.13;3.33;;;;;;;-2.31;53.40;99541.25;5093408;28;20032;-66
2022/01/19 12:37:52;;;;;;;8.43;3.78;;;;;;;-2.33;53.40;99537.81;5093759;28;20032;-65
2022/01/19 12:40:18;;;;;;;10.13;3.42;;;;;;;-2.35;52.88;99534.41;5093339;28;20032;-65
2022/01/19 12:42:55;;;;;;;7.07;3.60;;;;;;;-2.38;53.90;99537.13;5093689;28;20345;-67
2022/01/19 12:45:49;;;;;;;10.38;3.85;;;;;;;-2.58;54.52;99496.66;5093435;28;20127;-66
2022/01/19 12:48:34;;;;;;;11.13;4.40;;;;;;;-2.36;54.62;99527.44;5091493;28;20043;-64
2022/01/19 12:51:00;;;;;;;13.82;3.95;;;;;;;-2.38;53.72;99531.88;5093732;28;20027;-67
2022/01/19 12:53:25;;;;;;;9.15;3.45;;;;;;;-2.40;54.04;99531.06;5093005;28;20369;-65